Time;durP1;ratioP1;P1;durP2;ratioP2;P2;SDS_P1;SDS_P2;PMS_P1;PMS_P2;Temp;Humidity;BMP_temperature;BMP_pressure;BME280_temperature;BME280_humidity;BME280_pressure;Samples;Min_cycle;Max_cycle;Signal;HPM_P1;HPM_P2
2023/12/09 00:01:29;;;;;;;;;;;6.10;99.90;;;;;;5092620;27;20397;-77
2023/12/09 00:03:54;;;;;;;;;;;6.10;99.90;;;;;;5092009;27;20572;-76
2023/12/09 00:06:22;;;;;;;;;;;6.10;99.90;;;;;;5106331;27;19923;-76
2023/12/09 00:08:48;;;;;;;;;;;5.50;99.90;;;;;;5110053;27;19923;-76
2023/12/09 00:11:13;;;;;;;;;;;6.20;99.90;;;;;;5103496;27;19950;-75
2023/12/09 00:13:39;;;;;;;;;;;4.60;99.90;;;;;;5105734;27;19952;-77
2023/12/09 00:16:05;;;;;;;;;;;6.20;99.90;;;;;;5106702;27;20303;-77
2023/12/09 00:18:31;;;;;;;;;;;6.20;99.90;;;;;;5093943;27;20030;-76
2023/12/09 00:20:57;;;;;;;;;;;6.20;99.90;;;;;;5107695;27;19974;-76
2023/12/09 00:23:23;;;;;;;;;;;6.20;99.90;;;;;;5129023;27;19993;-75
2023/12/09 00:25:49;;;;;;;;;;;6.30;99.90;;;;;;5100102;27;20363;-74
2023/12/09 00:28:14;;;;;;;;;;;6.30;99.90;;;;;;5128842;27;19976;-76
2023/12/09 00:30:40;;;;;;;;;;;6.30;99.90;;;;;;5090046;27;19993;-76
2023/12/09 00:33:06;;;;;;;;;;;6.40;99.90;;;;;;5110216;27;19923;-75
2023/12/09 00:35:31;;;;;;;;;;;6.40;99.90;;;;;;5091461;27;20460;-76
2023/12/09 00:37:57;;;;;;;;;;;6.40;99.90;;;;;;5095661;27;20336;-76
2023/12/09 00:40:22;;;;;;;;;;;6.40;99.90;;;;;;5110453;27;20380;-76
2023/12/09 00:42:48;;;;;;;;;;;6.50;99.90;;;;;;5115670;27;19923;-76
2023/12/09 00:45:14;;;;;;;;;;;6.40;99.90;;;;;;5108566;27;20559;-76
2023/12/09 00:47:40;;;;;;;;;;;6.50;99.90;;;;;;5113378;27;19934;-75
2023/12/09 00:50:06;;;;;;;;;;;6.40;99.90;;;;;;5108560;27;19935;-77
2023/12/09 00:52:31;;;;;;;;;;;6.40;99.90;;;;;;5108398;27;19930;-76
2023/12/09 00:54:58;;;;;;;;;;;6.40;99.90;;;;;;5092395;27;19970;-77
2023/12/09 00:57:24;;;;;;;;;;;6.40;99.90;;;;;;5098892;27;19927;-76
2023/12/09 00:59:50;;;;;;;;;;;6.30;99.90;;;;;;5094193;27;19934;-76
2023/12/09 01:02:16;;;;;;;;;;;6.30;99.90;;;;;;5128503;27;20285;-76
2023/12/09 01:04:41;;;;;;;;;;;6.30;99.90;;;;;;5131065;27;19954;-76
2023/12/09 01:07:07;;;;;;;;;;;6.30;99.90;;;;;;5096424;27;19927;-76
2023/12/09 01:09:32;;;;;;;;;;;6.30;99.90;;;;;;5112407;27;19939;-76
2023/12/09 01:11:58;;;;;;;;;;;7.20;99.90;;;;;;5129765;27;19927;-77
2023/12/09 01:14:24;;;;;;;;;;;6.30;99.90;;;;;;5096566;27;19931;-76
2023/12/09 01:16:49;;;;;;;;;;;6.20;99.90;;;;;;5113052;27;19937;-76
2023/12/09 01:19:15;;;;;;;;;;;6.20;99.90;;;;;;5098788;27;19934;-76
2023/12/09 01:21:41;;;;;;;;;;;6.20;99.90;;;;;;5111857;27;19938;-76
2023/12/09 01:24:06;;;;;;;;;;;6.20;99.90;;;;;;5111678;27;19976;-76
2023/12/09 01:26:32;;;;;;;;;;;6.20;99.90;;;;;;5097068;27;20022;-75
2023/12/09 01:28:59;;;;;;;;;;;6.30;99.90;;;;;;5100667;27;20321;-76
2023/12/09 01:31:25;;;;;;;;;;;6.40;99.90;;;;;;5109179;27;20151;-76
2023/12/09 01:33:50;;;;;;;;;;;6.30;99.90;;;;;;5099198;27;20288;-76
2023/12/09 01:36:16;;;;;;;;;;;6.30;99.90;;;;;;5107446;27;19931;-76
2023/12/09 01:38:42;;;;;;;;;;;6.30;99.90;;;;;;5100340;27;20030;-75
2023/12/09 01:41:08;;;;;;;;;;;6.30;99.90;;;;;;5111645;27;20336;-76
2023/12/09 01:43:34;;;;;;;;;;;6.30;99.90;;;;;;5111731;27;19931;-76
2023/12/09 01:46:06;;;;;;;;;;;6.30;99.90;;;;;;5127492;27;19927;-76
2023/12/09 01:48:36;;;;;;;;;;;6.30;99.90;;;;;;5110992;27;19927;-75
2023/12/09 01:51:02;;;;;;;;;;;6.30;99.90;;;;;;5106159;27;19997;-75
2023/12/09 01:53:29;;;;;;;;;;;6.30;99.90;;;;;;5108760;27;19927;-75
2023/12/09 01:55:55;;;;;;;;;;;6.30;99.90;;;;;;5126836;27;19927;-75
2023/12/09 01:58:21;;;;;;;;;;;6.70;99.90;;;;;;5101159;27;19931;-76
2023/12/09 02:00:46;;;;;;;;;;;6.40;99.90;;;;;;5077769;27;19980;-76
2023/12/09 02:03:12;;;;;;;;;;;6.40;99.90;;;;;;5114405;27;19980;-75
2023/12/09 02:05:38;;;;;;;;;;;6.40;99.90;;;;;;5076093;27;19966;-75
2023/12/09 02:08:03;;;;;;;;;;;5.90;99.90;;;;;;5110709;27;19930;-76
2023/12/09 02:10:29;;;;;;;;;;;6.40;99.90;;;;;;5123678;27;20324;-75
2023/12/09 02:13:02;;;;;;;;;;;6.40;99.90;;;;;;5108363;27;20297;-76
2023/12/09 02:15:27;;;;;;;;;;;6.40;99.90;;;;;;5105856;27;19931;-75
2023/12/09 02:17:56;;;;;;;;;;;6.40;99.90;;;;;;5108244;27;20421;-76
2023/12/09 02:20:21;;;;;;;;;;;6.40;99.90;;;;;;5108801;27;20194;-76
2023/12/09 02:22:47;;;;;;;;;;;6.50;99.90;;;;;;5108659;27;20289;-76
2023/12/09 02:25:13;;;;;;;;;;;6.40;99.90;;;;;;5109993;27;20013;-75
2023/12/09 02:27:42;;;;;;;;;;;6.30;99.90;;;;;;5113295;27;20278;-76
2023/12/09 02:30:12;;;;;;;;;;;6.30;99.90;;;;;;5110571;27;19927;-75
2023/12/09 02:32:38;;;;;;;;;;;6.30;99.90;;;;;;5105249;27;19979;-75
2023/12/09 02:35:05;;;;;;;;;;;6.20;99.90;;;;;;5111414;27;20014;-75
2023/12/09 02:37:31;;;;;;;;;;;6.20;99.90;;;;;;5114680;27;19983;-75
2023/12/09 02:39:58;;;;;;;;;;;6.10;99.90;;;;;;5096973;27;19934;-75
2023/12/09 02:42:24;;;;;;;;;;;6.10;99.90;;;;;;5111993;27;19931;-76
2023/12/09 02:44:50;;;;;;;;;;;6.10;99.90;;;;;;5124005;27;19928;-75
2023/12/09 02:47:22;;;;;;;;;;;6.00;99.90;;;;;;5109434;27;20452;-75
2023/12/09 02:49:48;;;;;;;;;;;6.00;99.90;;;;;;5110515;27;19931;-76
2023/12/09 02:52:13;;;;;;;;;;;5.90;99.90;;;;;;5108081;27;19942;-75
2023/12/09 02:54:39;;;;;;;;;;;5.90;99.90;;;;;;5110280;27;19926;-75
2023/12/09 02:57:05;;;;;;;;;;;5.90;99.90;;;;;;5111780;27;20433;-75
2023/12/09 02:59:30;;;;;;;;;;;5.90;99.90;;;;;;5109228;27;19920;-74
2023/12/09 03:01:57;;;;;;;;;;;5.90;99.90;;;;;;5110860;27;20053;-75
2023/12/09 03:04:22;;;;;;;;;;;5.80;99.90;;;;;;5128115;27;20209;-75
2023/12/09 03:06:48;;;;;;;;;;;5.80;99.90;;;;;;5095954;27;19931;-75
2023/12/09 03:09:14;;;;;;;;;;;5.80;99.90;;;;;;5111560;27;19988;-75
2023/12/09 03:11:40;;;;;;;;;;;5.70;99.90;;;;;;5097281;27;19931;-75
2023/12/09 03:14:06;;;;;;;;;;;5.70;99.90;;;;;;5094908;27;19923;-75
2023/12/09 03:16:35;;;;;;;;;;;5.70;99.90;;;;;;5095227;27;19935;-75
2023/12/09 03:19:01;;;;;;;;;;;5.60;99.90;;;;;;5111189;27;21530;-75
2023/12/09 03:21:27;;;;;;;;;;;5.60;99.90;;;;;;5125297;27;19939;-75
2023/12/09 03:23:54;;;;;;;;;;;5.60;99.90;;;;;;5105982;27;20324;-75
2023/12/09 03:26:20;;;;;;;;;;;5.60;99.90;;;;;;5107786;27;19927;-76
2023/12/09 03:28:46;;;;;;;;;;;5.50;99.90;;;;;;5125780;27;19923;-75
2023/12/09 03:31:15;;;;;;;;;;;5.50;99.90;;;;;;5095965;27;19934;-76
2023/12/09 03:33:42;;;;;;;;;;;5.50;99.90;;;;;;5094429;27;19927;-75
2023/12/09 03:36:08;;;;;;;;;;;5.50;99.90;;;;;;5110006;27;19972;-76
2023/12/09 03:38:34;;;;;;;;;;;5.50;99.90;;;;;;5089904;27;19931;-75
2023/12/09 03:41:00;;;;;;;;;;;5.60;99.90;;;;;;5088576;27;19927;-76
2023/12/09 03:43:25;;;;;;;;;;;5.60;99.90;;;;;;5110063;27;20280;-76
2023/12/09 03:45:51;;;;;;;;;;;5.60;99.90;;;;;;5104950;27;20368;-76
2023/12/09 03:48:17;;;;;;;;;;;5.70;99.90;;;;;;5089029;27;19983;-76
2023/12/09 03:50:42;;;;;;;;;;;5.70;99.90;;;;;;5103146;27;19939;-75
2023/12/09 03:53:08;;;;;;;;;;;5.70;99.90;;;;;;5092806;27;20229;-76
2023/12/09 03:55:34;;;;;;;;;;;5.70;99.90;;;;;;5106699;27;20031;-75
2023/12/09 03:58:00;;;;;;;;;;;6.20;99.90;;;;;;5099164;27;19927;-75
2023/12/09 04:00:25;;;;;;;;;;;5.70;99.90;;;;;;5124687;27;20349;-76
2023/12/09 04:02:51;;;;;;;;;;;5.60;99.90;;;;;;5108706;27;19993;-75
2023/12/09 04:05:17;;;;;;;;;;;5.70;99.90;;;;;;5105826;27;20027;-76
2023/12/09 04:07:42;;;;;;;;;;;5.60;99.90;;;;;;5110155;27;19928;-75
2023/12/09 04:10:11;;;;;;;;;;;5.60;99.90;;;;;;5094608;27;20140;-75
2023/12/09 04:12:36;;;;;;;;;;;5.70;99.90;;;;;;5105585;27;19927;-76
2023/12/09 04:15:03;;;;;;;;;;;6.00;99.90;;;;;;5108524;27;19923;-76
2023/12/09 04:17:28;;;;;;;;;;;5.70;99.90;;;;;;5106293;27;19935;-76
2023/12/09 04:19:54;;;;;;;;;;;5.70;99.90;;;;;;5107346;27;19932;-75
2023/12/09 04:22:20;;;;;;;;;;;5.70;99.90;;;;;;5091887;27;20018;-76
2023/12/09 04:24:45;;;;;;;;;;;5.70;99.90;;;;;;5111637;27;19923;-76
2023/12/09 04:27:12;;;;;;;;;;;5.70;99.90;;;;;;5089832;27;20399;-76
2023/12/09 04:29:38;;;;;;;;;;;5.70;99.90;;;;;;5128385;27;21129;-75
2023/12/09 04:32:04;;;;;;;;;;;5.70;99.90;;;;;;5096555;27;20328;-76
2023/12/09 04:34:29;;;;;;;;;;;5.70;99.90;;;;;;5106768;27;20218;-76
2023/12/09 04:36:56;;;;;;;;;;;5.70;99.90;;;;;;5104394;27;20381;-76
2023/12/09 04:39:21;;;;;;;;;;;5.70;99.90;;;;;;5105129;27;19923;-75
2023/12/09 04:41:47;;;;;;;;;;;5.70;99.90;;;;;;5105553;27;19953;-76
2023/12/09 04:44:13;;;;;;;;;;;5.70;99.90;;;;;;5097640;27;20208;-76
2023/12/09 04:46:38;;;;;;;;;;;5.70;99.90;;;;;;5106592;27;19971;-76
2023/12/09 04:49:04;;;;;;;;;;;5.60;99.90;;;;;;5102881;27;19923;-75
2023/12/09 04:51:30;;;;;;;;;;;5.60;99.90;;;;;;5089439;27;19931;-77
2023/12/09 04:53:55;;;;;;;;;;;5.60;99.90;;;;;;5078285;27;19941;-76
2023/12/09 04:56:21;;;;;;;;;;;5.70;99.90;;;;;;5103914;27;19927;-76
2023/12/09 04:58:47;;;;;;;;;;;5.60;99.90;;;;;;5104613;27;19923;-76
2023/12/09 05:01:13;;;;;;;;;;;5.60;99.90;;;;;;5123486;27;19931;-76
2023/12/09 05:03:38;;;;;;;;;;;5.60;99.90;;;;;;5106024;27;20386;-76
2023/12/09 05:06:04;;;;;;;;;;;5.60;99.90;;;;;;5111797;27;20436;-76
2023/12/09 05:08:30;;;;;;;;;;;5.60;99.90;;;;;;5098286;27;20827;-76
2023/12/09 05:10:56;;;;;;;;;;;5.60;99.90;;;;;;5091757;27;19927;-76
2023/12/09 05:13:21;;;;;;;;;;;5.00;99.90;;;;;;5122069;27;20369;-76
2023/12/09 05:15:48;;;;;;;;;;;5.60;99.90;;;;;;5108008;27;19923;-76
2023/12/09 05:18:14;;;;;;;;;;;5.60;99.90;;;;;;5100640;27;19988;-75
2023/12/09 05:20:39;;;;;;;;;;;5.50;99.90;;;;;;5112666;27;19946;-76
2023/12/09 05:23:06;;;;;;;;;;;5.50;99.90;;;;;;5111655;27;20020;-76
2023/12/09 05:25:32;;;;;;;;;;;5.50;99.90;;;;;;5106637;27;19934;-76
2023/12/09 05:27:57;;;;;;;;;;;5.50;99.90;;;;;;5088054;27;20716;-76
2023/12/09 05:30:23;;;;;;;;;;;5.40;99.90;;;;;;5079505;27;19934;-75
2023/12/09 05:32:49;;;;;;;;;;;5.50;99.90;;;;;;5112031;27;19973;-76
2023/12/09 05:35:14;;;;;;;;;;;5.40;99.90;;;;;;5089636;27;20419;-75
2023/12/09 05:37:40;;;;;;;;;;;5.50;99.90;;;;;;5106725;27;19928;-76
2023/12/09 05:40:06;;;;;;;;;;;5.50;99.90;;;;;;5095107;27;19927;-76
2023/12/09 05:42:32;;;;;;;;;;;5.50;99.90;;;;;;5109213;27;19934;-75
2023/12/09 05:44:58;;;;;;;;;;;5.50;99.90;;;;;;5093445;27;20377;-76
2023/12/09 05:47:24;;;;;;;;;;;5.50;99.90;;;;;;5105627;27;19966;-76
2023/12/09 05:49:50;;;;;;;;;;;5.60;99.90;;;;;;5125786;27;19942;-76
2023/12/09 05:52:16;;;;;;;;;;;5.60;99.90;;;;;;5126982;27;19923;-76
2023/12/09 05:54:42;;;;;;;;;;;5.50;99.90;;;;;;5098721;27;19938;-76
2023/12/09 05:57:07;;;;;;;;;;;5.60;99.90;;;;;;5095954;27;19936;-76
2023/12/09 05:59:33;;;;;;;;;;;5.60;99.90;;;;;;5105313;27;19959;-75
2023/12/09 06:01:59;;;;;;;;;;;5.60;99.90;;;;;;5127296;27;19927;-76
2023/12/09 06:04:24;;;;;;;;;;;5.60;99.90;;;;;;5105156;27;20410;-76
2023/12/09 06:06:50;;;;;;;;;;;6.00;99.90;;;;;;5094108;27;19927;-76
2023/12/09 06:09:16;;;;;;;;;;;5.60;99.90;;;;;;5090688;27;21135;-76
2023/12/09 06:11:41;;;;;;;;;;;5.50;99.90;;;;;;5098433;27;20446;-76
2023/12/09 06:14:07;;;;;;;;;;;5.50;99.90;;;;;;5104998;27;19927;-76
2023/12/09 06:16:33;;;;;;;;;;;4.30;99.90;;;;;;5087875;27;20528;-76
2023/12/09 06:18:59;;;;;;;;;;;5.60;99.90;;;;;;5088280;27;19923;-76
2023/12/09 06:21:25;;;;;;;;;;;5.50;99.90;;;;;;5097101;27;20397;-76
2023/12/09 06:23:52;;;;;;;;;;;5.50;99.90;;;;;;5110350;27;19989;-76
2023/12/09 06:26:18;;;;;;;;;;;5.60;99.90;;;;;;5125796;27;19963;-76
2023/12/09 06:28:44;;;;;;;;;;;5.60;99.90;;;;;;5127114;27;19931;-76
2023/12/09 06:31:12;;;;;;;;;;;5.50;99.90;;;;;;5092042;27;20365;-76
2023/12/09 06:33:38;;;;;;;;;;;5.50;99.90;;;;;;5098608;27;20060;-76
2023/12/09 06:36:06;;;;;;;;;;;5.50;99.90;;;;;;5111459;27;19938;-76
2023/12/09 06:38:37;;;;;;;;;;;5.50;99.90;;;;;;5113631;27;20001;-76
2023/12/09 06:41:04;;;;;;;;;;;5.50;99.90;;;;;;5091919;27;19928;-75
2023/12/09 06:43:29;;;;;;;;;;;5.50;99.90;;;;;;5096502;27;19934;-75
2023/12/09 06:45:55;;;;;;;;;;;5.50;99.90;;;;;;5109966;27;19927;-75
2023/12/09 06:48:20;;;;;;;;;;;5.50;99.90;;;;;;5107921;27;20005;-78
2023/12/09 06:50:46;;;;;;;;;;;5.50;99.90;;;;;;5107458;27;19980;-77
2023/12/09 06:53:13;;;;;;;;;;;5.50;99.90;;;;;;5098487;27;21136;-77
2023/12/09 06:55:39;;;;;;;;;;;5.50;99.90;;;;;;5123861;27;20282;-77
2023/12/09 06:58:05;;;;;;;;;;;5.50;99.90;;;;;;5094477;27;19927;-75
2023/12/09 07:00:30;;;;;;;;;;;5.60;99.90;;;;;;5096242;27;20589;-75
2023/12/09 07:02:56;;;;;;;;;;;5.60;99.90;;;;;;5106647;27;19973;-75
2023/12/09 07:05:21;;;;;;;;;;;5.60;99.90;;;;;;5107113;27;20393;-75
2023/12/09 07:07:48;;;;;;;;;;;5.60;99.90;;;;;;5110636;27;19927;-75
2023/12/09 07:10:14;;;;;;;;;;;5.60;99.90;;;;;;5105107;27;19927;-75
2023/12/09 07:12:40;;;;;;;;;;;5.60;99.90;;;;;;5111614;27;19923;-75
2023/12/09 07:15:08;;;;;;;;;;;5.60;99.90;;;;;;5124747;27;19927;-75
2023/12/09 07:17:33;;;;;;;;;;;5.60;99.90;;;;;;5109918;27;19992;-74
2023/12/09 07:19:59;;;;;;;;;;;5.60;99.90;;;;;;5112629;27;19972;-75
2023/12/09 07:22:25;;;;;;;;;;;5.70;99.90;;;;;;5104311;27;20377;-74
2023/12/09 07:24:53;;;;;;;;;;;5.70;99.90;;;;;;5125978;27;19943;-74
2023/12/09 07:27:19;;;;;;;;;;;5.70;99.90;;;;;;5104721;27;19927;-75
2023/12/09 07:29:45;;;;;;;;;;;5.70;99.90;;;;;;5107585;27;20006;-75
2023/12/09 07:32:10;;;;;;;;;;;5.70;99.90;;;;;;5106992;27;20168;-75
2023/12/09 07:34:36;;;;;;;;;;;5.80;99.90;;;;;;5088659;27;19938;-75
2023/12/09 07:37:01;;;;;;;;;;;5.80;99.90;;;;;;5103460;27;19956;-74
2023/12/09 07:39:27;;;;;;;;;;;5.80;99.90;;;;;;5110918;27;19979;-74
2023/12/09 07:41:53;;;;;;;;;;;5.80;99.90;;;;;;5092366;27;20036;-75
2023/12/09 07:44:19;;;;;;;;;;;5.80;99.90;;;;;;5091837;27;19927;-75
2023/12/09 07:46:45;;;;;;;;;;;5.80;99.90;;;;;;5099028;27;19935;-75
2023/12/09 07:49:11;;;;;;;;;;;5.80;99.90;;;;;;5096429;27;20254;-75
2023/12/09 07:51:37;;;;;;;;;;;5.80;99.90;;;;;;5108158;27;19934;-74
2023/12/09 07:54:02;;;;;;;;;;;5.80;99.90;;;;;;5107274;27;19920;-75
2023/12/09 07:56:28;;;;;;;;;;;5.90;99.90;;;;;;5096850;27;19968;-75
2023/12/09 07:58:54;;;;;;;;;;;5.90;99.90;;;;;;5127607;27;19931;-76
2023/12/09 08:01:19;;;;;;;;;;;5.90;99.90;;;;;;5110223;27;20414;-75
2023/12/09 08:03:45;;;;;;;;;;;5.90;99.90;;;;;;5109905;27;19927;-75
2023/12/09 08:06:11;;;;;;;;;;;6.00;99.90;;;;;;5110212;27;20624;-76
2023/12/09 08:08:37;;;;;;;;;;;6.00;99.90;;;;;;5096764;27;19934;-76
2023/12/09 08:11:03;;;;;;;;;;;6.00;99.90;;;;;;5109060;27;19933;-75
2023/12/09 08:13:29;;;;;;;;;;;6.00;99.90;;;;;;5113792;27;20393;-75
2023/12/09 08:15:55;;;;;;;;;;;6.10;99.90;;;;;;5098983;27;20378;-75
2023/12/09 08:18:21;;;;;;;;;;;6.10;99.90;;;;;;5109200;27;19935;-75
2023/12/09 08:20:46;;;;;;;;;;;6.10;99.90;;;;;;5105392;27;19934;-75
2023/12/09 08:23:12;;;;;;;;;;;6.10;99.90;;;;;;5108097;27;20401;-76
2023/12/09 08:25:37;;;;;;;;;;;6.10;99.90;;;;;;5115492;27;19927;-76
2023/12/09 08:28:05;;;;;;;;;;;6.10;99.90;;;;;;5101003;27;19923;-75
2023/12/09 08:30:31;;;;;;;;;;;6.10;99.90;;;;;;5099504;27;19938;-76
2023/12/09 08:32:57;;;;;;;;;;;6.10;99.90;;;;;;5099584;27;19924;-75
2023/12/09 08:35:22;;;;;;;;;;;6.10;99.90;;;;;;5113826;27;19969;-75
2023/12/09 08:37:48;;;;;;;;;;;6.10;99.90;;;;;;5110792;27;19927;-75
2023/12/09 08:40:14;;;;;;;;;;;6.10;99.90;;;;;;5120699;27;19935;-75
2023/12/09 08:42:44;;;;;;;;;;;6.10;99.90;;;;;;5103732;27;19958;-76
2023/12/09 08:45:10;;;;;;;;;;;6.10;99.90;;;;;;5113986;27;20376;-75
2023/12/09 08:47:36;;;;;;;;;;;6.10;99.90;;;;;;5134378;27;19973;-75
2023/12/09 08:50:04;;;;;;;;;;;6.10;99.90;;;;;;5114087;27;20294;-76
2023/12/09 08:52:30;;;;;;;;;;;6.10;99.90;;;;;;5106803;27;20442;-76
2023/12/09 08:54:56;;;;;;;;;;;6.10;99.90;;;;;;5122394;27;20066;-76
2023/12/09 08:57:23;;;;;;;;;;;6.10;99.90;;;;;;5107889;27;20010;-75
2023/12/09 08:59:48;;;;;;;;;;;6.20;99.90;;;;;;5114351;27;19927;-75
2023/12/09 09:02:14;;;;;;;;;;;6.20;99.90;;;;;;5104751;27;19927;-75
2023/12/09 09:04:39;;;;;;;;;;;6.10;99.90;;;;;;5119306;27;19972;-76
2023/12/09 09:07:06;;;;;;;;;;;6.20;99.90;;;;;;5121946;27;19923;-76
2023/12/09 09:09:32;;;;;;;;;;;6.20;99.90;;;;;;5112195;27;19927;-75
2023/12/09 09:11:57;;;;;;;;;;;6.20;99.90;;;;;;5116673;27;19927;-75
2023/12/09 09:14:23;;;;;;;;;;;6.20;99.90;;;;;;5112305;27;19983;-76
2023/12/09 09:16:49;;;;;;;;;;;6.20;99.90;;;;;;5092231;27;19927;-76
2023/12/09 09:19:15;;;;;;;;;;;6.20;99.90;;;;;;5089279;27;20441;-76
2023/12/09 09:21:40;;;;;;;;;;;6.20;99.90;;;;;;5121121;27;19965;-75
2023/12/09 09:24:07;;;;;;;;;;;6.20;99.90;;;;;;5109566;27;19923;-75
2023/12/09 09:26:33;;;;;;;;;;;6.20;99.90;;;;;;5103870;27;20344;-75
2023/12/09 09:28:59;;;;;;;;;;;6.20;99.90;;;;;;5108862;27;20263;-76
2023/12/09 09:31:27;;;;;;;;;;;6.30;99.90;;;;;;5137901;27;19933;-75
2023/12/09 09:33:53;;;;;;;;;;;6.20;99.90;;;;;;5124371;27;19931;-76
2023/12/09 09:36:20;;;;;;;;;;;6.30;99.90;;;;;;5121918;27;20453;-75
2023/12/09 09:38:47;;;;;;;;;;;6.30;99.90;;;;;;5118667;27;19923;-75
2023/12/09 09:41:17;;;;;;;;;;;6.30;99.90;;;;;;5119518;27;20434;-75
2023/12/09 09:43:45;;;;;;;;;;;6.30;99.90;;;;;;5117976;27;19934;-75
2023/12/09 09:46:12;;;;;;;;;;;6.40;99.90;;;;;;5104872;27;19930;-76
2023/12/09 09:48:39;;;;;;;;;;;6.40;99.90;;;;;;5113260;27;19927;-76
2023/12/09 09:51:07;;;;;;;;;;;6.40;99.90;;;;;;5123919;27;19927;-76
2023/12/09 09:53:40;;;;;;;;;;;6.30;99.90;;;;;;5123503;27;19928;-75
2023/12/09 09:56:06;;;;;;;;;;;6.40;99.90;;;;;;5117450;27;19935;-76
2023/12/09 09:58:32;;;;;;;;;;;6.40;99.90;;;;;;5117325;27;20079;-76
2023/12/09 10:01:04;;;;;;;;;;;6.40;99.90;;;;;;5136564;27;19923;-76
2023/12/09 10:03:29;;;;;;;;;;;6.40;99.90;;;;;;5114390;27;20281;-77
2023/12/09 10:05:55;;;;;;;;;;;6.40;99.90;;;;;;5103978;27;19934;-75
2023/12/09 10:08:21;;;;;;;;;;;6.40;99.90;;;;;;5114532;27;19927;-76
2023/12/09 10:10:46;;;;;;;;;;;6.40;99.90;;;;;;5119399;27;19924;-76
2023/12/09 10:13:12;;;;;;;;;;;6.50;99.90;;;;;;5119379;27;19927;-76
2023/12/09 10:15:38;;;;;;;;;;;6.50;99.90;;;;;;5095519;27;19939;-76
2023/12/09 10:18:03;;;;;;;;;;;6.50;99.90;;;;;;5102264;27;19934;-76
2023/12/09 10:20:29;;;;;;;;;;;6.50;99.90;;;;;;5120290;27;19993;-76
2023/12/09 10:22:55;;;;;;;;;;;6.60;99.90;;;;;;5106532;27;20376;-76
2023/12/09 10:25:24;;;;;;;;;;;6.60;99.90;;;;;;5101273;27;19927;-76
2023/12/09 10:27:49;;;;;;;;;;;6.60;99.90;;;;;;5114192;27;19935;-76
2023/12/09 10:30:18;;;;;;;;;;;6.60;99.90;;;;;;5103162;27;20285;-76
2023/12/09 10:32:45;;;;;;;;;;;6.60;99.90;;;;;;5116412;27;19938;-76
2023/12/09 10:35:10;;;;;;;;;;;6.60;99.90;;;;;;5095304;27;20381;-76
2023/12/09 10:37:36;;;;;;;;;;;6.60;99.90;;;;;;5105726;27;19934;-76
2023/12/09 10:40:06;;;;;;;;;;;6.70;99.90;;;;;;5110094;27;19931;-76
2023/12/09 10:42:32;;;;;;;;;;;6.70;99.90;;;;;;5121101;27;19927;-76
2023/12/09 10:44:57;;;;;;;;;;;6.70;99.90;;;;;;5079224;27;20361;-75
2023/12/09 10:47:24;;;;;;;;;;;6.70;99.90;;;;;;5119791;27;19923;-75
2023/12/09 10:49:51;;;;;;;;;;;6.70;99.90;;;;;;5096957;27;19927;-76
2023/12/09 10:52:16;;;;;;;;;;;6.70;99.90;;;;;;5120272;27;20216;-76
2023/12/09 10:54:42;;;;;;;;;;;6.70;99.90;;;;;;5096473;27;19923;-76
2023/12/09 10:57:07;;;;;;;;;;;6.70;99.90;;;;;;5118118;27;19927;-76
2023/12/09 10:59:34;;;;;;;;;;;6.70;99.90;;;;;;5102495;27;20285;-75
2023/12/09 11:02:00;;;;;;;;;;;6.80;99.90;;;;;;5093857;27;19934;-76
2023/12/09 11:04:26;;;;;;;;;;;6.80;99.90;;;;;;5109596;27;19924;-76
2023/12/09 11:06:53;;;;;;;;;;;6.80;99.90;;;;;;5116351;27;19949;-76
2023/12/09 11:09:19;;;;;;;;;;;6.60;99.90;;;;;;5117039;27;19946;-76
2023/12/09 11:11:45;;;;;;;;;;;6.80;99.90;;;;;;5116023;27;19962;-76
2023/12/09 11:14:11;;;;;;;;;;;6.80;99.90;;;;;;5130654;27;20111;-76
2023/12/09 11:16:40;;;;;;;;;;;6.80;99.90;;;;;;5131301;27;19947;-76
2023/12/09 11:19:08;;;;;;;;;;;6.90;99.90;;;;;;5107419;27;19927;-76
2023/12/09 11:21:34;;;;;;;;;;;6.80;99.90;;;;;;5118274;27;19934;-76
2023/12/09 11:24:00;;;;;;;;;;;6.90;99.90;;;;;;5109717;27;20406;-76
2023/12/09 11:26:33;;;;;;;;;;;6.90;99.90;;;;;;5118055;27;19927;-76
2023/12/09 11:29:03;;;;;;;;;;;6.90;99.90;;;;;;5118350;27;20664;-76
2023/12/09 11:31:36;;;;;;;;;;;6.90;99.90;;;;;;5122161;27;20574;-76
2023/12/09 11:34:03;;;;;;;;;;;7.00;99.90;;;;;;5113080;27;19926;-77
2023/12/09 11:36:30;;;;;;;;;;;7.00;99.90;;;;;;5114789;27;20018;-76
2023/12/09 11:38:56;;;;;;;;;;;7.00;99.90;;;;;;5099166;27;20816;-76
2023/12/09 11:41:21;;;;;;;;;;;7.00;99.90;;;;;;5117853;27;19927;-76
2023/12/09 11:43:47;;;;;;;;;;;7.00;99.90;;;;;;5115662;27;19929;-76
2023/12/09 11:46:13;;;;;;;;;;;7.00;99.90;;;;;;5103656;27;20304;-76
2023/12/09 11:48:39;;;;;;;;;;;7.10;99.90;;;;;;5117644;27;19924;-76
2023/12/09 11:51:04;;;;;;;;;;;7.10;99.90;;;;;;5118191;27;19931;-76
2023/12/09 11:53:30;;;;;;;;;;;7.10;99.90;;;;;;5108745;27;19934;-76
2023/12/09 11:55:56;;;;;;;;;;;7.10;99.90;;;;;;5101647;27;19927;-76
2023/12/09 11:58:21;;;;;;;;;;;7.10;99.90;;;;;;5114872;27;19941;-76
2023/12/09 12:00:47;;;;;;;;;;;7.20;99.90;;;;;;5102733;27;19983;-76
2023/12/09 12:03:14;;;;;;;;;;;7.20;99.90;;;;;;5108646;27;19927;-76
2023/12/09 12:05:39;;;;;;;;;;;7.20;99.90;;;;;;5116018;27;19934;-77
2023/12/09 12:08:05;;;;;;;;;;;7.20;99.90;;;;;;5109969;27;19923;-76
2023/12/09 12:10:31;;;;;;;;;;;7.20;99.90;;;;;;5105978;27;19928;-76
2023/12/09 12:12:57;;;;;;;;;;;7.20;99.90;;;;;;5119696;27;20032;-76
2023/12/09 12:15:23;;;;;;;;;;;7.20;99.90;;;;;;5122333;27;19938;-77
2023/12/09 12:17:48;;;;;;;;;;;7.30;99.90;;;;;;5122305;27;19932;-76
2023/12/09 12:20:14;;;;;;;;;;;7.30;99.90;;;;;;5116969;27;19927;-76
2023/12/09 12:22:43;;;;;;;;;;;7.30;99.90;;;;;;5121464;27;20354;-76
2023/12/09 12:25:09;;;;;;;;;;;7.30;99.90;;;;;;5124005;27;19927;-77
2023/12/09 12:27:35;;;;;;;;;;;7.30;99.90;;;;;;5106904;27;19938;-76
2023/12/09 12:30:02;;;;;;;;;;;7.30;99.90;;;;;;5115771;27;20057;-76
2023/12/09 12:32:27;;;;;;;;;;;7.30;99.90;;;;;;5124813;27;19919;-76
2023/12/09 12:34:53;;;;;;;;;;;7.30;99.90;;;;;;5112528;27;19934;-77
2023/12/09 12:37:19;;;;;;;;;;;7.30;99.90;;;;;;5115118;27;19923;-76
2023/12/09 12:39:45;;;;;;;;;;;7.30;99.90;;;;;;5082908;27;20334;-76
2023/12/09 12:42:10;;;;;;;;;;;7.40;99.90;;;;;;5119272;27;19970;-76
2023/12/09 12:44:36;;;;;;;;;;;7.40;99.90;;;;;;5114970;27;20388;-76
2023/12/09 12:47:05;;;;;;;;;;;7.30;99.90;;;;;;5117267;27;19928;-77
2023/12/09 12:49:37;;;;;;;;;;;7.40;99.90;;;;;;5119369;27;20288;-76
2023/12/09 12:52:03;;;;;;;;;;;7.40;99.90;;;;;;5115057;27;20269;-76
2023/12/09 12:54:29;;;;;;;;;;;7.40;99.90;;;;;;5114857;27;20005;-76
2023/12/09 12:56:54;;;;;;;;;;;7.30;99.90;;;;;;5120024;27;20026;-76
2023/12/09 12:59:20;;;;;;;;;;;7.30;99.90;;;;;;5093729;27;20013;-76
2023/12/09 13:01:46;;;;;;;;;;;7.30;99.90;;;;;;5122644;27;19927;-76
2023/12/09 13:04:18;;;;;;;;;;;7.30;99.90;;;;;;5111794;27;19934;-77
2023/12/09 13:06:44;;;;;;;;;;;7.30;99.90;;;;;;5116442;27;19928;-76
2023/12/09 13:09:09;;;;;;;;;;;7.30;99.90;;;;;;5095321;27;19927;-76
2023/12/09 13:11:35;;;;;;;;;;;7.30;99.90;;;;;;5097001;27;19923;-75
2023/12/09 13:14:01;;;;;;;;;;;7.30;99.90;;;;;;5121026;27;19973;-76
2023/12/09 13:16:27;;;;;;;;;;;7.30;99.90;;;;;;5097596;27;20460;-76
2023/12/09 13:18:53;;;;;;;;;;;7.20;99.90;;;;;;5115280;27;19927;-76
2023/12/09 13:21:18;;;;;;;;;;;7.20;99.90;;;;;;5118696;27;20327;-75
2023/12/09 13:23:44;;;;;;;;;;;7.20;99.90;;;;;;5114914;27;20783;-76
2023/12/09 13:26:10;;;;;;;;;;;7.20;99.90;;;;;;5121495;27;19934;-76
2023/12/09 13:28:35;;;;;;;;;;;7.20;99.90;;;;;;5122624;27;19923;-77
2023/12/09 13:31:01;;;;;;;;;;;7.20;99.90;;;;;;5132335;27;20498;-76
2023/12/09 13:33:27;;;;;;;;;;;7.20;99.90;;;;;;5121614;27;19924;-76
2023/12/09 13:35:52;;;;;;;;;;;7.20;99.90;;;;;;5112947;27;20293;-76
2023/12/09 13:38:24;;;;;;;;;;;7.10;99.90;;;;;;5132984;27;20488;-77
2023/12/09 13:40:49;;;;;;;;;;;7.10;99.90;;;;;;5106611;27;19927;-76
2023/12/09 13:43:15;;;;;;;;;;;7.10;99.90;;;;;;5110736;27;19934;-76
2023/12/09 13:45:41;;;;;;;;;;;7.10;99.90;;;;;;5095150;27;19927;-77
2023/12/09 13:48:06;;;;;;;;;;;7.10;99.90;;;;;;5119304;27;19953;-76
2023/12/09 13:50:32;;;;;;;;;;;7.00;99.90;;;;;;5121835;27;19927;-77
2023/12/09 13:52:58;;;;;;;;;;;7.10;99.90;;;;;;5132976;27;19932;-76
2023/12/09 13:55:26;;;;;;;;;;;7.00;99.90;;;;;;5113549;27;20227;-77
2023/12/09 13:57:51;;;;;;;;;;;7.00;99.90;;;;;;5116528;27;19928;-76
2023/12/09 14:00:17;;;;;;;;;;;7.00;99.90;;;;;;5101089;27;19992;-77
2023/12/09 14:02:45;;;;;;;;;;;6.90;99.90;;;;;;5106196;27;20346;-76
2023/12/09 14:05:11;;;;;;;;;;;6.90;99.90;;;;;;5113399;27;19933;-76
2023/12/09 14:07:37;;;;;;;;;;;6.90;99.90;;;;;;5077455;27;19929;-76
2023/12/09 14:10:04;;;;;;;;;;;6.90;99.90;;;;;;5110772;27;19927;-76
2023/12/09 14:12:30;;;;;;;;;;;6.80;99.90;;;;;;5093925;27;19975;-77
2023/12/09 14:14:56;;;;;;;;;;;6.80;99.90;;;;;;5131568;27;19927;-76
2023/12/09 14:17:22;;;;;;;;;;;6.80;99.90;;;;;;5097420;27;19950;-76
2023/12/09 14:19:47;;;;;;;;;;;6.80;99.90;;;;;;5119137;27;19923;-77
2023/12/09 14:22:13;;;;;;;;;;;6.80;99.90;;;;;;5111543;27;19931;-77
2023/12/09 14:24:39;;;;;;;;;;;6.80;99.90;;;;;;5093659;27;19970;-77